createdAt,value
2018-06-21T02:51:43.285Z,97.42
2018-06-21T02:52:43.238Z,97.42
2018-06-21T02:53:43.216Z,97.23
2018-06-21T02:54:43.195Z,97.04
2018-06-21T02:55:43.175Z,97.23
2018-06-21T02:56:43.153Z,97.23
2018-06-21T02:57:43.130Z,97.61
2018-06-21T02:58:43.110Z,96.94
2018-06-21T02:59:43.104Z,96.85
2018-06-21T03:00:43.069Z,97.04
2018-06-21T03:01:43.048Z,97.61
2018-06-21T03:02:43.026Z,98.00
2018-06-21T03:03:43.014Z,97.61
2018-06-21T03:04:42.986Z,98.00
2018-06-21T03:05:42.967Z,98.00
2018-06-21T03:06:42.946Z,97.81
2018-06-21T03:07:42.925Z,97.52
2018-06-21T03:08:42.907Z,97.71
2018-06-21T03:09:42.890Z,97.14
2018-06-21T03:10:42.866Z,97.90
2018-06-21T03:11:42.846Z,97.14
2018-06-21T03:12:42.827Z,97.81
2018-06-21T03:13:42.804Z,97.71
2018-06-21T03:14:42.785Z,97.61
2018-06-21T03:15:42.766Z,98.00
2018-06-21T03:16:42.747Z,97.81
2018-06-21T03:17:42.727Z,98.00
2018-06-21T03:18:42.706Z,97.81
2018-06-21T03:19:42.684Z,97.04
2018-06-21T03:20:42.703Z,97.71
2018-06-21T03:21:42.647Z,97.52
2018-06-21T03:22:42.627Z,97.52
2018-06-21T03:23:42.605Z,97.71
2018-06-21T03:24:42.702Z,97.33
2018-06-21T03:25:42.566Z,98.10
2018-06-21T03:26:42.546Z,97.52
2018-06-21T03:27:42.525Z,97.52
2018-06-21T03:28:42.506Z,97.52
2018-06-21T03:29:42.485Z,97.42
2018-06-21T03:30:42.465Z,97.14
2018-06-21T03:31:42.447Z,97.61
2018-06-21T03:32:42.425Z,97.61
2018-06-21T03:33:42.406Z,97.71
2018-06-21T03:34:42.385Z,97.61
2018-06-21T03:35:42.367Z,97.71
2018-06-21T03:36:42.346Z,97.71
2018-06-21T03:37:42.328Z,97.61
2018-06-21T03:38:42.309Z,97.14
2018-06-21T03:39:42.289Z,97.81
2018-06-21T03:40:42.269Z,98.00
2018-06-21T03:41:42.248Z,97.90
2018-06-21T03:42:42.227Z,97.81
2018-06-21T03:43:42.208Z,98.00
2018-06-21T03:44:42.190Z,97.81
2018-06-21T03:45:42.172Z,97.04
2018-06-21T03:46:42.147Z,97.52
2018-06-21T03:47:42.129Z,97.81
2018-06-21T03:48:42.110Z,97.90
2018-06-21T03:49:42.091Z,97.42
2018-06-21T03:50:42.071Z,97.66
2018-06-21T03:51:42.052Z,97.09
2018-06-21T03:52:42.032Z,97.04
2018-06-21T03:53:42.013Z,96.99
2018-06-21T03:54:41.999Z,97.47
2018-06-21T03:55:41.973Z,97.04
2018-06-21T03:56:41.954Z,97.23
2018-06-21T03:57:41.937Z,97.09
2018-06-21T03:58:41.914Z,97.19
2018-06-21T03:59:41.900Z,97.09
2018-06-21T04:00:41.876Z,97.09
2018-06-21T04:01:41.857Z,97.28
2018-06-21T04:02:41.834Z,97.09
2018-06-21T04:03:41.820Z,97.76
2018-06-21T04:04:41.800Z,97.19
2018-06-21T04:05:41.779Z,97.38
2018-06-21T04:06:41.759Z,97.28
2018-06-21T04:07:41.740Z,97.09
2018-06-21T04:08:41.721Z,97.09
2018-06-21T04:09:41.702Z,97.28
2018-06-21T04:10:41.682Z,97.09
2018-06-21T04:11:41.664Z,97.28
2018-06-21T04:12:41.644Z,97.47
2018-06-21T04:13:41.628Z,96.70
2018-06-21T04:14:41.605Z,97.09
2018-06-21T04:15:41.586Z,96.99
2018-06-21T04:16:41.565Z,96.89
2018-06-21T04:17:41.549Z,97.09
2018-06-21T04:18:41.530Z,97.09
2018-06-21T04:19:41.512Z,97.28
2018-06-21T04:20:41.491Z,97.09
2018-06-21T04:21:41.476Z,97.28
2018-06-21T04:22:41.451Z,97.28
2018-06-21T04:23:41.442Z,97.28
2018-06-21T04:24:41.413Z,96.80
2018-06-21T04:25:41.395Z,97.09
2018-06-21T04:26:41.374Z,97.04
2018-06-21T04:27:41.356Z,96.85
2018-06-21T04:28:41.337Z,96.85
2018-06-21T04:29:41.322Z,97.04
2018-06-21T04:30:41.300Z,96.85
2018-06-21T04:31:41.279Z,97.04
2018-06-21T04:32:41.262Z,96.75
2018-06-21T04:33:41.242Z,96.75
2018-06-21T04:34:41.223Z,97.24
2018-06-21T04:35:41.209Z,97.04
2018-06-21T04:36:41.184Z,97.33
2018-06-21T04:37:41.165Z,97.71
2018-06-21T04:38:41.146Z,97.14
2018-06-21T04:39:41.164Z,97.24
2018-06-21T04:40:41.122Z,97.52
2018-06-21T04:41:41.090Z,97.14
2018-06-21T04:42:41.070Z,97.33
2018-06-21T04:43:41.053Z,97.04
2018-06-21T04:44:41.039Z,97.33
2018-06-21T04:45:41.016Z,97.33
2018-06-21T04:46:40.995Z,97.14
2018-06-21T04:47:40.977Z,97.14
2018-06-21T04:48:40.963Z,97.33
2018-06-21T04:49:40.938Z,97.52
2018-06-21T04:50:40.937Z,97.04
2018-06-21T04:51:40.977Z,97.04
2018-06-21T04:52:40.890Z,97.24
2018-06-21T04:53:40.860Z,96.85
2018-06-21T04:54:40.845Z,97.14
2018-06-21T04:55:40.827Z,97.33
2018-06-21T04:56:40.807Z,97.52
2018-06-21T04:57:40.789Z,97.33
2018-06-21T04:58:40.768Z,97.14
2018-06-21T04:59:40.750Z,97.33
2018-06-21T05:00:40.735Z,97.71
2018-06-21T05:01:40.710Z,97.04
2018-06-21T05:02:40.699Z,97.71
2018-06-21T05:03:40.676Z,97.61
2018-06-21T05:04:40.658Z,97.42
2018-06-21T05:05:40.640Z,97.61
2018-06-21T05:06:40.617Z,97.24
2018-06-21T05:07:40.600Z,97.04
2018-06-21T05:08:40.581Z,97.33
2018-06-21T05:09:40.564Z,97.24
2018-06-21T05:10:40.543Z,97.24
2018-06-21T05:11:40.520Z,97.33
2018-06-21T05:12:40.507Z,97.14
2018-06-21T05:13:40.503Z,97.04
2018-06-21T05:14:40.469Z,97.71
2018-06-21T05:15:40.450Z,97.04
2018-06-21T05:16:40.431Z,98.00
2018-06-21T05:17:40.412Z,98.19
2018-06-21T05:18:40.394Z,97.52
2018-06-21T05:19:40.376Z,95.89
2018-06-21T05:20:40.357Z,95.03
2018-06-21T05:21:40.337Z,94.07
2018-06-21T05:22:40.319Z,93.25
2018-06-21T05:23:40.299Z,92.86
2018-06-21T05:24:40.281Z,92.96
2018-06-21T05:25:40.260Z,92.10
2018-06-21T05:26:40.241Z,90.66
2018-06-21T05:27:40.220Z,91.24
2018-06-21T05:28:40.204Z,90.18
2018-06-21T05:29:40.192Z,89.51
2018-06-21T05:30:40.163Z,87.59
2018-06-21T05:31:40.147Z,88.31
2018-06-21T05:32:40.125Z,87.55
2018-06-21T05:33:40.106Z,87.07
2018-06-21T05:34:40.096Z,85.72
2018-06-21T05:35:40.065Z,85.05
2018-06-21T05:36:40.052Z,84.77
2018-06-21T05:37:40.040Z,84.48
2018-06-21T05:38:40.009Z,84.00
2018-06-21T05:39:39.987Z,83.91
2018-06-21T05:40:39.970Z,84.00
2018-06-21T05:41:39.948Z,83.47
2018-06-21T05:42:39.925Z,81.98
2018-06-21T05:43:39.907Z,83.61
2018-06-21T05:44:39.887Z,83.14
2018-06-21T05:45:39.868Z,82.37
2018-06-21T05:46:39.850Z,81.79
2018-06-21T05:47:39.830Z,81.31
2018-06-21T05:48:39.811Z,81.02
2018-06-21T05:49:39.789Z,80.83
2018-06-21T05:50:39.768Z,80.07
2018-06-21T05:51:39.753Z,80.55
2018-06-21T05:52:39.731Z,80.07
2018-06-21T05:53:39.710Z,79.78
2018-06-21T05:54:39.687Z,79.21
2018-06-21T05:55:39.666Z,79.30
2018-06-21T05:56:39.650Z,79.39
2018-06-21T05:57:39.631Z,79.68
2018-06-21T05:58:39.606Z,79.21
2018-06-21T05:59:39.586Z,78.72
2018-06-21T06:00:39.566Z,78.63
2018-06-21T06:01:39.548Z,78.92
2018-06-21T06:02:39.528Z,77.86
2018-06-21T06:03:39.508Z,77.29
2018-06-21T06:04:39.488Z,76.71
2018-06-21T06:05:39.473Z,76.32
2018-06-21T06:06:39.449Z,76.52
2018-06-21T06:07:39.431Z,75.85
2018-06-21T06:08:39.599Z,73.07
2018-06-21T06:09:39.387Z,71.98
2018-06-21T06:10:39.366Z,72.84
2018-06-21T06:11:39.346Z,74.76
2018-06-21T06:12:39.325Z,75.14
2018-06-21T06:13:39.307Z,75.04
2018-06-21T06:14:39.287Z,75.71
2018-06-21T06:15:39.265Z,74.85
2018-06-21T06:16:39.249Z,73.99
2018-06-21T06:17:39.230Z,73.32
2018-06-21T06:18:39.206Z,73.13
2018-06-21T06:19:39.188Z,72.64
2018-06-21T06:20:39.167Z,72.32
2018-06-21T06:21:39.146Z,71.98
2018-06-21T06:22:39.127Z,72.42
2018-06-21T06:23:39.112Z,72.13
2018-06-21T06:24:39.085Z,72.27
2018-06-21T06:25:39.064Z,71.69
2018-06-21T06:26:39.048Z,71.08
2018-06-21T06:27:39.024Z,71.31
2018-06-21T06:28:39.063Z,72.80
2018-06-21T06:29:38.980Z,73.57
2018-06-21T06:30:38.962Z,77.69
2018-06-21T06:31:38.940Z,78.36
2018-06-21T06:32:38.922Z,78.27
2018-06-21T06:33:38.903Z,78.74
2018-06-21T06:34:38.917Z,78.64
2018-06-21T06:35:38.860Z,78.42
2018-06-21T06:36:38.843Z,77.50
2018-06-21T06:37:38.820Z,79.03
2018-06-21T06:38:38.804Z,80.43
2018-06-21T06:39:38.782Z,80.43
2018-06-21T06:40:38.764Z,82.34
2018-06-21T06:41:38.737Z,81.10
2018-06-21T06:42:38.716Z,83.20
2018-06-21T06:43:38.695Z,82.63
2018-06-21T06:44:38.676Z,82.73
2018-06-21T06:45:38.656Z,82.06
2018-06-21T06:46:38.636Z,81.96
2018-06-21T06:47:38.617Z,81.29
2018-06-21T06:48:38.595Z,81.00
2018-06-21T06:49:38.577Z,80.76
2018-06-21T06:50:38.551Z,80.76
2018-06-21T06:51:38.532Z,80.85
2018-06-21T06:52:38.512Z,81.43
2018-06-21T06:53:38.486Z,82.19
2018-06-21T06:54:38.526Z,82.29
2018-06-21T06:55:38.450Z,81.81
2018-06-21T06:56:38.429Z,81.62
2018-06-21T06:57:38.413Z,81.04
2018-06-21T06:58:38.389Z,81.43
2018-06-21T06:59:38.367Z,80.66
2018-06-21T07:00:38.347Z,81.33
2018-06-21T07:01:38.334Z,82.57
2018-06-21T07:02:38.307Z,81.62
2018-06-21T07:03:38.286Z,81.81
2018-06-21T07:04:38.266Z,82.29
2018-06-21T07:05:38.249Z,82.00
2018-06-21T07:06:38.227Z,80.94
2018-06-21T07:07:38.211Z,80.66
2018-06-21T07:08:38.187Z,81.13
2018-06-21T07:09:38.169Z,81.33
2018-06-21T07:10:38.145Z,80.37
2018-06-21T07:11:38.171Z,80.47
2018-06-21T07:12:38.105Z,79.99
2018-06-21T07:13:38.089Z,80.47
2018-06-21T07:14:38.064Z,80.94
2018-06-21T07:15:38.044Z,82.29
2018-06-21T07:16:38.025Z,81.81
2018-06-21T07:17:38.003Z,81.62
2018-06-21T07:18:37.983Z,84.49
2018-06-21T07:19:37.964Z,85.45
2018-06-21T07:20:37.943Z,85.74
2018-06-21T07:21:37.922Z,85.83
2018-06-21T07:22:37.901Z,86.69
2018-06-21T07:23:37.883Z,87.08
2018-06-21T07:24:37.861Z,86.17
2018-06-21T07:25:37.840Z,86.69
2018-06-21T07:26:37.820Z,86.60
2018-06-21T07:27:37.800Z,86.12
2018-06-21T07:28:37.776Z,85.64
2018-06-21T07:29:37.760Z,89.33
2018-06-21T07:30:37.737Z,89.33
2018-06-21T07:31:37.722Z,92.01
2018-06-21T07:32:37.695Z,94.12
2018-06-21T07:33:37.715Z,93.07
2018-06-21T07:34:37.659Z,93.21
2018-06-21T07:35:37.637Z,94.07
2018-06-21T07:36:37.615Z,93.78
2018-06-21T07:37:37.596Z,94.17
2018-06-21T07:38:37.575Z,93.98
2018-06-21T07:39:37.573Z,94.35
2018-06-21T07:40:37.539Z,94.12
2018-06-21T07:41:37.517Z,97.09
2018-06-21T07:42:37.496Z,95.36
2018-06-21T07:43:37.475Z,96.13
2018-06-21T07:44:37.459Z,96.89
2018-06-21T07:45:37.432Z,98.00
2018-06-21T07:46:37.421Z,97.52
2018-06-21T07:47:37.396Z,96.94
2018-06-21T07:48:37.382Z,97.61
2018-06-21T07:49:37.359Z,97.71
2018-06-21T07:50:37.337Z,97.52
2018-06-21T07:51:37.320Z,97.90
2018-06-21T07:52:37.299Z,97.71
2018-06-21T07:53:37.279Z,97.42
2018-06-21T07:54:37.263Z,97.61
2018-06-21T07:55:37.241Z,97.61
2018-06-21T07:56:37.221Z,97.61
2018-06-21T07:57:37.201Z,97.61
2018-06-21T07:58:37.180Z,97.61
2018-06-21T07:59:37.160Z,97.61
2018-06-21T08:00:37.148Z,97.71
2018-06-21T08:01:37.124Z,97.52
2018-06-21T08:02:37.108Z,97.38
2018-06-21T08:03:37.083Z,97.66
2018-06-21T08:04:37.070Z,97.47
2018-06-21T08:05:37.044Z,97.56
2018-06-21T08:06:37.026Z,98.38
2018-06-21T08:07:37.003Z,97.23
2018-06-21T08:08:36.986Z,98.00
2018-06-21T08:09:36.972Z,97.81
2018-06-21T08:10:36.946Z,98.00
2018-06-21T08:11:36.928Z,97.71
2018-06-21T08:12:36.908Z,98.86
2018-06-21T08:13:36.891Z,97.81
2018-06-21T08:14:36.869Z,97.81
2018-06-21T08:15:36.852Z,97.90
2018-06-21T08:16:36.831Z,98.14
2018-06-21T08:17:36.813Z,97.90
2018-06-21T08:18:36.796Z,97.86
2018-06-21T08:19:36.776Z,98.05
2018-06-21T08:20:36.758Z,97.42
2018-06-21T08:21:36.739Z,98.05
2018-06-21T08:22:36.720Z,98.05
2018-06-21T08:23:36.702Z,97.38
2018-06-21T08:24:36.682Z,98.33
2018-06-21T08:25:36.666Z,98.14
2018-06-21T08:26:36.647Z,98.05
2018-06-21T08:27:36.628Z,98.05
2018-06-21T08:28:36.609Z,96.42
2018-06-21T08:29:36.593Z,96.22
2018-06-21T08:30:36.574Z,96.51
2018-06-21T08:31:36.554Z,96.56
2018-06-21T08:32:36.532Z,96.66
2018-06-21T08:33:36.523Z,98.05
2018-06-21T08:34:36.500Z,97.28
2018-06-21T08:35:36.483Z,97.09
2018-06-21T08:36:36.458Z,96.42
2018-06-21T08:37:36.448Z,96.70
2018-06-21T08:38:36.428Z,97.28
2018-06-21T08:39:36.411Z,96.51
2018-06-21T08:40:36.393Z,96.03
2018-06-21T08:41:36.374Z,95.94
2018-06-21T08:42:36.355Z,96.75
2018-06-21T08:43:36.337Z,94.11
2018-06-21T08:44:36.321Z,94.31
2018-06-21T08:45:36.302Z,93.58
2018-06-21T08:46:36.282Z,93.82
2018-06-21T08:47:36.265Z,93.63
2018-06-21T08:48:36.248Z,94.07
2018-06-21T08:49:36.230Z,95.12
2018-06-21T08:50:36.213Z,95.12
2018-06-21T08:51:36.195Z,95.12
2018-06-21T08:52:36.179Z,95.89
2018-06-21T08:53:36.162Z,95.65
2018-06-21T08:54:36.144Z,94.49
2018-06-21T08:55:36.125Z,94.73
2018-06-21T08:56:36.107Z,93.58
2018-06-21T08:57:36.091Z,92.81
2018-06-21T08:58:36.073Z,92.14
2018-06-21T08:59:36.055Z,91.42
2018-06-21T09:00:36.038Z,91.90
2018-06-21T09:01:36.025Z,90.75
2018-06-21T09:02:36.004Z,88.63
2018-06-21T09:03:35.988Z,88.87
2018-06-21T09:04:35.973Z,86.71
2018-06-21T09:05:35.954Z,85.94
2018-06-21T09:06:35.937Z,84.84
2018-06-21T09:07:35.924Z,86.47
2018-06-21T09:08:35.904Z,87.15
2018-06-21T09:09:35.948Z,85.61
2018-06-21T09:10:35.872Z,85.61
2018-06-21T09:11:35.894Z,86.13
2018-06-21T09:12:35.840Z,84.98
2018-06-21T09:13:35.828Z,84.69
2018-06-21T09:14:35.807Z,84.83
2018-06-21T09:15:35.790Z,83.06
2018-06-21T09:16:35.778Z,82.57
2018-06-21T09:17:35.762Z,83.73
2018-06-21T09:18:35.742Z,82.24
2018-06-21T09:19:35.726Z,82.43
2018-06-21T09:20:35.711Z,83.30
2018-06-21T09:21:35.695Z,82.92
2018-06-21T09:22:35.682Z,83.84
2018-06-21T09:23:35.672Z,84.08
2018-06-21T09:24:35.651Z,86.19
2018-06-21T09:25:35.629Z,87.73
2018-06-21T09:26:35.617Z,87.88
2018-06-21T09:27:35.600Z,90.08
2018-06-21T09:28:35.579Z,94.35
2018-06-21T09:29:35.565Z,95.79
2018-06-21T09:30:35.546Z,95.56
2018-06-21T09:31:35.529Z,95.79
2018-06-21T09:32:35.515Z,97.04
2018-06-21T09:33:35.495Z,96.99
2018-06-21T09:34:35.476Z,97.66
2018-06-21T09:35:35.459Z,97.28
2018-06-21T09:36:35.442Z,97.38
2018-06-21T09:37:35.420Z,97.18
2018-06-21T09:38:35.401Z,97.09
2018-06-21T09:39:35.386Z,97.47
2018-06-21T09:40:35.364Z,97.52
2018-06-21T09:41:35.345Z,94.89
2018-06-21T09:42:35.323Z,95.70
2018-06-21T09:43:35.305Z,93.73
2018-06-21T09:44:35.286Z,91.76
2018-06-21T09:45:35.266Z,91.23
2018-06-21T09:46:35.249Z,89.60
2018-06-21T09:47:35.233Z,87.92
2018-06-21T09:48:35.215Z,86.80
2018-06-21T09:49:35.196Z,85.36
2018-06-21T09:50:35.175Z,87.04
2018-06-21T09:51:35.158Z,84.25
2018-06-21T09:52:35.203Z,82.81
2018-06-21T09:53:35.124Z,82.57
2018-06-21T09:54:35.108Z,81.88
2018-06-21T09:55:35.090Z,81.98
2018-06-21T09:56:35.076Z,81.02
2018-06-21T09:57:35.094Z,79.71
2018-06-21T09:58:35.040Z,79.67
2018-06-21T09:59:35.025Z,80.54
2018-06-21T10:00:35.011Z,80.58
2018-06-21T10:01:34.994Z,78.46
2018-06-21T10:02:34.979Z,78.85
2018-06-21T10:03:34.961Z,79.03
2018-06-21T10:04:34.945Z,79.58
2018-06-21T10:05:34.931Z,78.96
2018-06-21T10:06:34.920Z,79.82
2018-06-21T10:07:34.901Z,80.30
2018-06-21T10:08:34.888Z,80.30
2018-06-21T10:09:34.873Z,78.13
2018-06-21T10:10:34.853Z,75.48
2018-06-21T10:11:34.841Z,74.63
2018-06-21T10:12:34.825Z,77.04
2018-06-21T10:13:34.815Z,75.19
2018-06-21T10:14:34.795Z,71.53
2018-06-21T10:15:34.779Z,69.60
2018-06-21T10:16:34.766Z,69.02
2018-06-21T10:17:34.751Z,68.77
2018-06-21T10:18:34.749Z,67.61
2018-06-21T10:19:34.721Z,65.98
2018-06-21T10:20:34.739Z,68.13
2018-06-21T10:21:34.692Z,66.49
2018-06-21T10:22:34.678Z,66.33
2018-06-21T10:23:34.663Z,64.08
2018-06-21T10:24:34.652Z,63.79
2018-06-21T10:25:34.636Z,64.47
2018-06-21T10:26:34.624Z,66.30
2018-06-21T10:27:34.609Z,67.16
2018-06-21T10:28:34.594Z,66.39
2018-06-21T10:29:34.574Z,67.36
2018-06-21T10:30:34.567Z,66.46
2018-06-21T10:31:34.554Z,67.00
2018-06-21T10:32:34.539Z,66.20
2018-06-21T10:33:34.526Z,66.01
2018-06-21T10:34:34.510Z,66.27
2018-06-21T10:35:34.495Z,66.27
2018-06-21T10:36:34.488Z,66.84
2018-06-21T10:37:34.468Z,65.69
2018-06-21T10:38:34.454Z,66.36
2018-06-21T10:39:34.435Z,66.17
2018-06-21T10:40:34.424Z,66.17
2018-06-21T10:41:34.408Z,66.65
2018-06-21T10:42:34.397Z,66.42
2018-06-21T10:43:34.379Z,64.92
2018-06-21T10:44:34.363Z,65.56
2018-06-21T10:45:34.346Z,64.56
2018-06-21T10:46:34.333Z,61.96
2018-06-21T10:47:34.318Z,60.42
2018-06-21T10:48:34.305Z,60.83
2018-06-21T10:49:34.287Z,58.75
2018-06-21T10:50:34.272Z,58.26
2018-06-21T10:51:34.259Z,58.81
2018-06-21T10:52:34.244Z,57.85
2018-06-21T10:53:34.232Z,57.78
2018-06-21T10:54:34.217Z,56.94
2018-06-21T10:55:34.201Z,55.10
2018-06-21T10:56:34.191Z,55.46
2018-06-21T10:57:34.177Z,57.07
2018-06-21T10:58:34.163Z,57.69
2018-06-21T10:59:34.149Z,57.79
2018-06-21T11:00:34.136Z,58.56
2018-06-21T11:01:34.128Z,57.69
2018-06-21T11:02:34.116Z,58.50
2018-06-21T11:03:34.096Z,59.62
2018-06-21T11:04:34.085Z,59.17
2018-06-21T11:05:34.073Z,57.87
2018-06-21T11:06:34.060Z,57.62
2018-06-21T11:07:34.043Z,57.75
2018-06-21T11:08:34.046Z,57.10
2018-06-21T11:09:34.017Z,55.98
2018-06-21T11:10:34.004Z,55.04
2018-06-21T11:11:33.988Z,52.43
2018-06-21T11:12:33.977Z,51.68
2018-06-21T11:13:33.963Z,50.01
2018-06-21T11:14:33.950Z,49.73
2018-06-21T11:15:33.941Z,50.76
2018-06-21T11:16:33.924Z,50.13
2018-06-21T11:17:33.914Z,53.22
2018-06-21T11:18:33.904Z,53.44
2018-06-21T11:19:33.892Z,53.44
2018-06-21T11:20:33.880Z,53.95
2018-06-21T11:21:33.867Z,51.95
2018-06-21T11:22:33.856Z,52.59
2018-06-21T11:23:33.846Z,53.89
2018-06-21T11:24:33.835Z,57.02
2018-06-21T11:25:33.822Z,58.37
2018-06-21T11:26:33.808Z,59.88
2018-06-21T11:27:33.800Z,61.46
2018-06-21T11:28:33.786Z,62.93
2018-06-21T11:29:33.772Z,61.25
2018-06-21T11:30:33.757Z,60.03
2018-06-21T11:31:33.745Z,57.68
2018-06-21T11:32:33.730Z,56.72
2018-06-21T11:33:33.718Z,56.00
2018-06-21T11:34:33.705Z,54.17
2018-06-21T11:35:33.694Z,52.23
2018-06-21T11:36:33.682Z,52.09
2018-06-21T11:37:33.667Z,51.35
2018-06-21T11:38:33.655Z,49.90
2018-06-21T11:39:33.642Z,47.99
2018-06-21T11:40:33.632Z,48.54
2018-06-21T11:41:33.622Z,47.77
2018-06-21T11:42:33.611Z,48.25
2018-06-21T11:43:33.600Z,47.60
2018-06-21T11:44:33.589Z,46.88
2018-06-21T11:45:33.576Z,47.55
2018-06-21T11:46:33.567Z,48.23
2018-06-21T11:47:33.556Z,49.27
2018-06-21T11:48:33.544Z,47.91
2018-06-21T11:49:33.538Z,48.32
2018-06-21T11:50:33.523Z,47.38
2018-06-21T11:51:33.512Z,47.16
2018-06-21T11:52:33.505Z,48.35
2018-06-21T11:53:33.495Z,48.61
2018-06-21T11:54:33.734Z,48.64
2018-06-21T11:55:33.473Z,48.25
2018-06-21T11:56:33.464Z,47.21
2018-06-21T11:57:33.461Z,46.66
2018-06-21T11:58:33.448Z,45.66
2018-06-21T11:59:33.439Z,46.25
2018-06-21T12:00:33.427Z,47.00
2018-06-21T12:01:33.421Z,49.34
2018-06-21T12:02:33.407Z,50.62
2018-06-21T12:03:33.438Z,50.04
2018-06-21T12:04:33.437Z,50.38
2018-06-21T12:05:33.379Z,50.64
2018-06-21T12:06:33.368Z,51.70
2018-06-21T12:07:33.360Z,50.35
2018-06-21T12:08:33.350Z,50.76
2018-06-21T12:09:33.337Z,49.63
2018-06-21T12:10:33.326Z,46.92
2018-06-21T12:11:33.317Z,45.98
2018-06-21T12:12:33.307Z,46.27
2018-06-21T12:13:33.294Z,46.54
2018-06-21T12:14:33.283Z,46.95
2018-06-21T12:15:33.273Z,46.30
2018-06-21T12:16:33.263Z,45.35
2018-06-21T12:17:33.254Z,44.31
2018-06-21T12:18:33.244Z,43.44
2018-06-21T12:19:33.232Z,46.25
2018-06-21T12:20:33.223Z,46.92
2018-06-21T12:21:33.213Z,46.34
2018-06-21T12:22:33.203Z,46.17
2018-06-21T12:23:33.193Z,45.96
2018-06-21T12:24:33.183Z,45.89
2018-06-21T12:25:33.171Z,45.57
2018-06-21T12:26:33.164Z,44.70
2018-06-21T12:27:33.178Z,44.81
2018-06-21T12:28:33.154Z,43.92
2018-06-21T12:29:33.136Z,45.69
2018-06-21T12:30:33.133Z,47.70
2018-06-21T12:31:33.114Z,48.01
2018-06-21T12:32:33.150Z,46.95
2018-06-21T12:33:33.097Z,46.88
2018-06-21T12:34:33.081Z,46.12
2018-06-21T12:35:33.078Z,45.06
2018-06-21T12:36:33.068Z,44.31
2018-06-21T12:37:33.060Z,43.54
2018-06-21T12:38:33.055Z,41.14
2018-06-21T12:39:33.037Z,40.63
2018-06-21T12:40:33.031Z,41.04
2018-06-21T12:41:33.022Z,39.47
2018-06-21T12:42:33.012Z,39.84
2018-06-21T12:43:33.063Z,41.31
2018-06-21T12:44:32.998Z,40.03
2018-06-21T12:45:32.988Z,40.88
2018-06-21T12:46:32.997Z,41.15
2018-06-21T12:47:32.970Z,42.07
2018-06-21T12:48:32.965Z,41.11
2018-06-21T12:49:32.951Z,41.70
2018-06-21T12:50:32.941Z,40.84
2018-06-21T12:51:32.934Z,39.90
2018-06-21T12:52:32.959Z,39.80
2018-06-21T12:53:32.917Z,39.53
2018-06-21T12:54:32.911Z,38.76
2018-06-21T12:55:32.899Z,38.37
2018-06-21T12:56:32.891Z,39.26
2018-06-21T12:57:32.883Z,38.68
2018-06-21T12:58:32.874Z,38.15
2018-06-21T12:59:32.866Z,39.34
2018-06-21T13:00:32.859Z,39.11
2018-06-21T13:01:32.849Z,39.78
2018-06-21T13:02:32.837Z,40.46
2018-06-21T13:03:32.836Z,40.05
2018-06-21T13:04:32.827Z,41.77
2018-06-21T13:05:32.822Z,42.07
2018-06-21T13:06:32.808Z,41.87
2018-06-21T13:07:32.805Z,42.16
2018-06-21T13:08:32.793Z,42.08
2018-06-21T13:09:32.787Z,41.91
2018-06-21T13:10:32.777Z,41.55
2018-06-21T13:11:32.769Z,41.16
2018-06-21T13:12:32.764Z,40.79
2018-06-21T13:13:32.753Z,40.23
2018-06-21T13:14:32.746Z,39.43
2018-06-21T13:15:32.764Z,39.70
2018-06-21T13:16:32.729Z,40.05
2018-06-21T13:17:32.718Z,39.47
2018-06-21T13:18:32.713Z,39.74
2018-06-21T13:19:32.704Z,40.90
2018-06-21T13:20:32.751Z,40.73
2018-06-21T13:21:32.690Z,39.94
2018-06-21T13:22:32.680Z,39.36
2018-06-21T13:23:32.676Z,38.79
2018-06-21T13:24:32.668Z,38.58
2018-06-21T13:25:32.658Z,38.68
2018-06-21T13:26:32.649Z,39.09
2018-06-21T13:27:32.644Z,38.43
2018-06-21T13:28:32.633Z,38.93
2018-06-21T13:29:32.625Z,38.93
2018-06-21T13:30:32.617Z,38.15
2018-06-21T13:31:32.610Z,39.03
2018-06-21T13:32:32.602Z,39.47
2018-06-21T13:33:32.595Z,40.92
2018-06-21T13:34:32.592Z,40.53
2018-06-21T13:35:32.579Z,41.33
2018-06-21T13:36:32.575Z,42.13
2018-06-21T13:37:32.561Z,41.35
2018-06-21T13:38:32.555Z,40.48
2018-06-21T13:39:32.547Z,39.90
2018-06-21T13:40:32.539Z,40.00
2018-06-21T13:41:32.534Z,40.21
2018-06-21T13:42:32.527Z,39.82
2018-06-21T13:43:32.517Z,42.04
2018-06-21T13:44:32.512Z,42.30
2018-06-21T13:45:32.507Z,40.84
2018-06-21T13:46:32.495Z,40.03
2018-06-21T13:47:32.496Z,41.73
2018-06-21T13:48:32.481Z,43.08
2018-06-21T13:49:32.472Z,42.74
2018-06-21T13:50:32.463Z,42.08
2018-06-21T13:51:32.461Z,42.66
2018-06-21T13:52:32.448Z,41.77
2018-06-21T13:53:32.440Z,42.99
2018-06-21T13:54:32.458Z,44.39
2018-06-21T13:55:32.425Z,44.82
2018-06-21T13:56:32.417Z,43.76
2018-06-21T13:57:32.408Z,43.49
2018-06-21T13:58:32.397Z,43.32
2018-06-21T13:59:32.391Z,43.23
2018-06-21T14:00:32.412Z,42.93
2018-06-21T14:01:32.374Z,42.93
2018-06-21T14:02:32.365Z,43.37
2018-06-21T14:03:32.356Z,44.82
2018-06-21T14:04:32.348Z,45.35
2018-06-21T14:05:32.345Z,43.41
2018-06-21T14:06:32.331Z,43.34
2018-06-21T14:07:32.344Z,42.96
2018-06-21T14:08:32.566Z,42.97
2018-06-21T14:09:32.307Z,43.07
2018-06-21T14:10:32.300Z,43.03
2018-06-21T14:11:32.291Z,44.75
2018-06-21T14:12:32.288Z,45.28
2018-06-21T14:13:32.278Z,44.67
2018-06-21T14:14:32.266Z,43.32
2018-06-21T14:15:32.260Z,45.00
2018-06-21T14:16:32.251Z,45.72
2018-06-21T14:17:32.244Z,45.64
2018-06-21T14:18:32.238Z,43.99
2018-06-21T14:19:32.229Z,44.09
2018-06-21T14:20:32.237Z,44.57
2018-06-21T14:21:32.214Z,44.31
2018-06-21T14:22:32.210Z,43.44
2018-06-21T14:23:32.232Z,43.05
2018-06-21T14:24:32.196Z,43.49
2018-06-21T14:25:32.185Z,44.38
2018-06-21T14:26:32.184Z,44.60
2018-06-21T14:27:32.170Z,43.17
2018-06-21T14:28:32.164Z,42.83
2018-06-21T14:29:32.157Z,43.40
2018-06-21T14:30:32.148Z,43.88
2018-06-21T14:31:32.137Z,44.36
2018-06-21T14:32:32.131Z,44.84
2018-06-21T14:33:32.125Z,44.92
2018-06-21T14:34:32.116Z,45.01
2018-06-21T14:35:32.108Z,46.23
2018-06-21T14:36:32.101Z,48.33
2018-06-21T14:37:32.091Z,49.07
2018-06-21T14:38:32.082Z,49.94
2018-06-21T14:39:32.075Z,49.58
2018-06-21T14:40:32.065Z,48.81
2018-06-21T14:41:32.060Z,49.37
2018-06-21T14:42:32.050Z,50.40
2018-06-21T14:43:32.038Z,51.43
2018-06-21T14:44:32.029Z,52.47
2018-06-21T14:45:32.016Z,53.27
2018-06-21T14:46:32.006Z,52.06
2018-06-21T14:47:31.995Z,51.34
2018-06-21T14:48:31.983Z,50.62
2018-06-21T14:49:31.974Z,49.75
2018-06-21T14:50:31.962Z,48.71
2018-06-21T14:51:31.953Z,48.32
2018-06-21T14:52:31.941Z,47.96
2018-06-21T14:53:31.939Z,48.03
2018-06-21T14:54:31.923Z,48.97
2018-06-21T14:55:31.912Z,49.53
2018-06-21T14:56:31.904Z,50.64
2018-06-21T14:57:31.892Z,52.13
2018-06-21T14:58:31.884Z,54.06
2018-06-21T14:59:31.873Z,55.16
2018-06-21T15:00:31.868Z,56.77
2018-06-21T15:01:31.857Z,57.25
2018-06-21T15:02:31.841Z,57.99
2018-06-21T15:03:31.825Z,58.37
2018-06-21T15:04:31.815Z,59.60
2018-06-21T15:05:31.803Z,60.08
2018-06-21T15:06:31.791Z,60.27
2018-06-21T15:07:31.775Z,60.66
2018-06-21T15:08:31.764Z,61.71
2018-06-21T15:09:31.751Z,61.71
2018-06-21T15:10:31.743Z,61.71
2018-06-21T15:11:31.723Z,62.10
2018-06-21T15:12:31.708Z,61.23
2018-06-21T15:13:31.696Z,61.11
2018-06-21T15:14:31.693Z,61.30
2018-06-21T15:15:31.664Z,62.55
2018-06-21T15:16:31.649Z,62.81
2018-06-21T15:17:31.642Z,63.57
2018-06-21T15:18:31.618Z,64.25
2018-06-21T15:19:31.603Z,65.30
2018-06-21T15:20:31.587Z,64.79
2018-06-21T15:21:31.579Z,65.75
2018-06-21T15:22:31.552Z,65.94
2018-06-21T15:23:31.538Z,65.56
2018-06-21T15:24:31.521Z,65.46
2018-06-21T15:25:31.504Z,65.72
2018-06-21T15:26:31.489Z,65.81
2018-06-21T15:27:31.474Z,63.83
2018-06-21T15:28:31.456Z,62.48
2018-06-21T15:29:31.438Z,61.65
2018-06-21T15:30:31.422Z,61.11
2018-06-21T15:31:31.407Z,59.50
2018-06-21T15:32:31.583Z,58.18
2018-06-21T15:33:31.374Z,57.73
2018-06-21T15:34:31.364Z,56.48
2018-06-21T15:35:31.346Z,56.38
2018-06-21T15:36:31.332Z,56.03
2018-06-21T15:37:31.319Z,56.22
2018-06-21T15:38:31.302Z,55.93
2018-06-21T15:39:31.282Z,56.03
2018-06-21T15:40:31.277Z,55.57
2018-06-21T15:41:31.263Z,55.57
2018-06-21T15:42:31.253Z,55.31
2018-06-21T15:43:31.238Z,55.60